createdAt,value
2023-04-18T00:02:17.714Z,102507.47
2023-04-18T00:07:19.282Z,102502.47
2023-04-18T00:12:20.914Z,102497.88
2023-04-18T00:17:22.320Z,102503.66
2023-04-18T00:22:25.197Z,102507.41
2023-04-18T00:27:26.774Z,102506.91
2023-04-18T00:32:28.404Z,102506.56
2023-04-18T00:37:30.193Z,102511.28
2023-04-18T00:42:31.875Z,102517.47
2023-04-18T00:47:33.407Z,102515.69
2023-04-18T00:52:35.963Z,102514.28
2023-04-18T00:57:37.570Z,102506.03
2023-04-18T01:02:40.556Z,102502.13
2023-04-18T01:07:42.938Z,102506.88
2023-04-18T01:12:44.391Z,102500.94
2023-04-18T01:17:46.341Z,102505.38
2023-04-18T01:22:47.922Z,102502.13
2023-04-18T01:27:49.333Z,102497.38
2023-04-18T01:32:50.821Z,102498.78
2023-04-18T01:37:52.288Z,102494.69
2023-04-18T01:42:53.671Z,102489.09
2023-04-18T01:47:55.102Z,102484.66
2023-04-18T01:52:56.639Z,102490.00
2023-04-18T01:57:59.172Z,102487.97
2023-04-18T02:03:02.463Z,102480.38
2023-04-18T02:08:04.182Z,102483.25
2023-04-18T02:13:06.748Z,102482.78
2023-04-18T02:18:09.501Z,102487.31
2023-04-18T02:23:11.230Z,102475.78
2023-04-18T02:28:12.646Z,102482.00
2023-04-18T02:33:14.041Z,102479.13
2023-04-18T02:38:15.613Z,102476.34
2023-04-18T02:43:17.050Z,102486.84
2023-04-18T02:48:18.548Z,102481.97
2023-04-18T02:53:23.395Z,102477.47
2023-04-18T02:58:24.899Z,102486.94
2023-04-18T03:03:26.436Z,102486.63
2023-04-18T03:08:27.873Z,102481.00
2023-04-18T03:13:29.284Z,102477.53
2023-04-18T03:18:31.395Z,102479.50
2023-04-18T03:23:32.780Z,102484.81
2023-04-18T03:28:34.546Z,102483.34
2023-04-18T03:33:36.106Z,102489.63
2023-04-18T03:38:40.506Z,102487.28
2023-04-18T03:43:41.944Z,102487.06
2023-04-18T03:48:43.319Z,102485.78
2023-04-18T03:53:44.867Z,102495.22
2023-04-18T03:58:46.339Z,102493.06
2023-04-18T04:03:48.059Z,102489.44
2023-04-18T04:08:49.800Z,102499.31
2023-04-18T04:13:51.234Z,102502.59
2023-04-18T04:18:52.816Z,102504.47
2023-04-18T04:23:54.236Z,102497.28
2023-04-18T04:28:55.655Z,102491.06
2023-04-18T04:33:57.169Z,102495.22
2023-04-18T04:38:58.609Z,102496.59
2023-04-18T04:44:01.845Z,102505.75
2023-04-18T04:49:03.383Z,102500.00
2023-04-18T04:54:04.936Z,102499.72
2023-04-18T04:59:07.587Z,102496.56
2023-04-18T05:04:09.162Z,102500.19
2023-04-18T05:09:10.629Z,102507.31
2023-04-18T05:14:12.613Z,102513.63
2023-04-18T05:19:14.467Z,102506.38
2023-04-18T05:24:16.196Z,102515.63
2023-04-18T05:29:17.778Z,102509.03
2023-04-18T05:34:19.150Z,102522.25
2023-04-18T05:39:20.601Z,102521.81
2023-04-18T05:44:24.108Z,102524.88
2023-04-18T05:49:25.560Z,102531.38
2023-04-18T05:54:27.449Z,102520.97
2023-04-18T05:59:29.158Z,102530.00
2023-04-18T06:04:30.908Z,102523.81
2023-04-18T06:09:32.421Z,102528.72
2023-04-18T06:14:33.920Z,102537.88
2023-04-18T06:19:35.444Z,102540.09
2023-04-18T06:24:37.415Z,102541.88
2023-04-18T06:29:38.866Z,102541.44
2023-04-18T06:34:40.816Z,102541.06
2023-04-18T06:39:42.495Z,102543.47
2023-04-18T06:44:43.983Z,102544.59
2023-04-18T06:49:45.629Z,102548.06
2023-04-18T06:54:47.047Z,102552.13
2023-04-18T06:59:48.464Z,102558.88
2023-04-18T07:04:50.214Z,102558.56
2023-04-18T07:09:52.798Z,102553.75
2023-04-18T07:14:55.125Z,102560.16
2023-04-18T07:19:56.658Z,102563.81
2023-04-18T07:24:58.067Z,102559.91
2023-04-18T07:29:59.608Z,102554.81
2023-04-18T07:35:01.299Z,102561.50
2023-04-18T07:40:02.843Z,102554.03
2023-04-18T07:45:04.887Z,102561.78
2023-04-18T07:50:06.949Z,102549.38
2023-04-18T07:55:08.700Z,102564.31
2023-04-18T08:00:12.401Z,102566.97
2023-04-18T08:05:13.952Z,102571.41
2023-04-18T08:10:15.757Z,102571.91
2023-04-18T08:15:17.210Z,102573.06
2023-04-18T08:20:18.681Z,102570.34
2023-04-18T08:25:20.154Z,102568.34
2023-04-18T08:30:21.616Z,102563.25
2023-04-18T08:35:23.096Z,102570.84
2023-04-18T08:40:24.513Z,102575.34
2023-04-18T08:45:26.338Z,102579.19
2023-04-18T08:50:27.925Z,102577.06
2023-04-18T08:55:29.576Z,102585.38
2023-04-18T09:00:31.026Z,102582.22
2023-04-18T09:05:32.834Z,102567.88
2023-04-18T09:10:36.537Z,102572.00
2023-04-18T09:15:37.949Z,102580.25
2023-04-18T09:20:41.337Z,102583.94
2023-04-18T09:25:46.612Z,102575.41
2023-04-18T09:30:51.474Z,102581.28
2023-04-18T09:35:53.185Z,102581.56
2023-04-18T09:41:08.903Z,102581.25
2023-04-18T09:46:10.965Z,102572.72
2023-04-18T09:51:16.672Z,102571.28
2023-04-18T09:56:28.123Z,102578.59
2023-04-18T10:01:29.837Z,102576.44
2023-04-18T10:06:34.226Z,102566.81
2023-04-18T10:11:36.458Z,102568.06
2023-04-18T10:16:38.797Z,102560.75
2023-04-18T10:21:51.425Z,102555.44
2023-04-18T10:26:52.955Z,102538.03
2023-04-18T10:31:54.614Z,102535.50
2023-04-18T10:37:05.838Z,102543.81
2023-04-18T10:42:07.336Z,102541.78
2023-04-18T10:47:08.868Z,102549.47
2023-04-18T10:52:11.688Z,102553.72
2023-04-18T10:57:15.244Z,102552.84
2023-04-18T11:02:30.741Z,102545.91
2023-04-18T11:07:38.500Z,102538.06
2023-04-18T11:12:41.629Z,102541.50
2023-04-18T11:17:43.946Z,102530.97
2023-04-18T11:22:56.276Z,102526.06
2023-04-18T11:28:02.356Z,102524.81
2023-04-18T11:33:11.536Z,102518.31
2023-04-18T11:38:14.394Z,102528.75
2023-04-18T11:43:21.519Z,102520.19
2023-04-18T11:48:23.428Z,102516.22
2023-04-18T11:53:38.771Z,102523.19
2023-04-18T11:58:40.427Z,102527.78
2023-04-18T12:03:43.799Z,102525.44
2023-04-18T12:08:45.516Z,102537.69
2023-04-18T12:13:46.951Z,102526.03
2023-04-18T12:18:48.379Z,102525.75
2023-04-18T12:23:49.825Z,102521.56
2023-04-18T12:28:51.371Z,102532.69
2023-04-18T12:33:52.776Z,102528.38
2023-04-18T12:38:54.200Z,102522.78
2023-04-18T12:43:55.729Z,102517.94
2023-04-18T12:48:57.480Z,102508.75
2023-04-18T12:53:58.994Z,102499.66
2023-04-18T12:59:00.512Z,102495.06
2023-04-18T13:04:11.632Z,102505.56
2023-04-18T13:09:14.892Z,102501.81
2023-04-18T13:14:16.584Z,102505.38
2023-04-18T13:19:17.961Z,102502.41
2023-04-18T13:24:19.373Z,102508.84
2023-04-18T13:29:20.813Z,102506.53
2023-04-18T13:34:22.265Z,102512.47
2023-04-18T13:39:24.853Z,102508.50
2023-04-18T13:44:26.383Z,102507.00
2023-04-18T13:49:27.988Z,102503.88
2023-04-18T13:54:31.180Z,102498.38
2023-04-18T13:59:33.505Z,102496.16
2023-04-18T14:04:35.036Z,102500.59
2023-04-18T14:09:36.529Z,102509.56
2023-04-18T14:14:37.938Z,102494.78
2023-04-18T14:19:39.302Z,102481.97
2023-04-18T14:24:40.853Z,102481.84
2023-04-18T14:29:42.266Z,102474.78
2023-04-18T14:34:43.722Z,102483.22
2023-04-18T14:39:45.222Z,102479.66
2023-04-18T14:44:46.613Z,102486.75
2023-04-18T14:49:47.990Z,102475.59
2023-04-18T14:54:49.351Z,102455.94
2023-04-18T14:59:51.207Z,102467.38
2023-04-18T15:04:53.316Z,102469.78
2023-04-18T15:09:54.856Z,102464.25
2023-04-18T15:14:56.383Z,102464.88
2023-04-18T15:19:58.747Z,102460.72
2023-04-18T15:25:00.295Z,102461.13
2023-04-18T15:30:02.853Z,102467.22
2023-04-18T15:35:04.671Z,102456.69
2023-04-18T15:40:09.438Z,102461.06
2023-04-18T15:45:11.717Z,102462.28
2023-04-18T15:50:13.203Z,102455.78
2023-04-18T15:55:14.635Z,102446.41
2023-04-18T16:00:16.494Z,102439.19
2023-04-18T16:05:18.313Z,102444.88
2023-04-18T16:10:19.731Z,102444.34
2023-04-18T16:15:21.434Z,102445.75
2023-04-18T16:20:22.878Z,102444.72
2023-04-18T16:25:24.402Z,102433.63
2023-04-18T16:30:26.062Z,102447.19
2023-04-18T16:35:27.521Z,102439.63
2023-04-18T16:40:33.441Z,102440.59
2023-04-18T16:45:34.886Z,102439.34
2023-04-18T16:50:36.284Z,102445.75
2023-04-18T16:55:37.662Z,102432.22
2023-04-18T17:00:42.070Z,102434.09
2023-04-18T17:05:44.456Z,102435.72
2023-04-18T17:10:45.880Z,102432.38
2023-04-18T17:15:47.394Z,102437.25
2023-04-18T17:20:48.819Z,102435.59
2023-04-18T17:25:51.858Z,102442.63
2023-04-18T17:30:53.315Z,102442.84
2023-04-18T17:35:54.834Z,102442.44
2023-04-18T17:41:03.193Z,102440.00
2023-04-18T17:46:04.799Z,102439.72
2023-04-18T17:51:06.334Z,102438.41
2023-04-18T17:56:07.789Z,102445.31
2023-04-18T18:01:19.957Z,102443.63
2023-04-18T18:06:21.462Z,102450.31
2023-04-18T18:11:23.753Z,102454.25
2023-04-18T18:16:25.359Z,102463.53
2023-04-18T18:21:27.151Z,102457.91
2023-04-18T18:26:29.194Z,102462.34
2023-04-18T18:31:30.833Z,102462.69
2023-04-18T18:36:32.395Z,102458.91
2023-04-18T18:41:33.996Z,102467.91
2023-04-18T18:46:38.875Z,102473.44
2023-04-18T18:51:40.985Z,102480.13
2023-04-18T18:56:42.962Z,102474.53
2023-04-18T19:01:44.512Z,102489.19
2023-04-18T19:06:46.082Z,102490.34
2023-04-18T19:11:47.524Z,102500.50
2023-04-18T19:16:50.222Z,102513.47
2023-04-18T19:21:52.078Z,102508.03
2023-04-18T19:26:53.612Z,102516.78
2023-04-18T19:31:55.325Z,102520.50
2023-04-18T19:36:57.171Z,102526.06
2023-04-18T19:41:58.659Z,102525.50
2023-04-18T19:47:01.694Z,102536.28
2023-04-18T19:52:03.164Z,102537.63
2023-04-18T19:57:06.508Z,102541.00
2023-04-18T20:02:08.094Z,102540.31
2023-04-18T20:07:09.634Z,102550.38
2023-04-18T20:12:11.052Z,102549.00
2023-04-18T20:17:14.708Z,102547.69
2023-04-18T20:22:16.800Z,102547.84
2023-04-18T20:27:20.557Z,102550.28
2023-04-18T20:32:24.545Z,102558.16
2023-04-18T20:37:27.731Z,102550.94
2023-04-18T20:42:32.361Z,102554.25
2023-04-18T20:47:42.472Z,102564.50
2023-04-18T20:52:44.543Z,102561.81
2023-04-18T20:57:48.532Z,102557.88
2023-04-18T21:02:50.358Z,102565.63
2023-04-18T21:07:54.807Z,102566.81
2023-04-18T21:12:56.240Z,102570.72
2023-04-18T21:17:57.746Z,102581.22
2023-04-18T21:22:59.256Z,102586.66
2023-04-18T21:28:00.825Z,102582.69
2023-04-18T21:33:02.688Z,102586.59
2023-04-18T21:38:04.129Z,102584.72
2023-04-18T21:43:05.555Z,102583.78
2023-04-18T21:48:09.482Z,102584.59
2023-04-18T21:53:10.970Z,102584.72
2023-04-18T21:58:14.208Z,102585.47
2023-04-18T22:03:15.873Z,102582.88
2023-04-18T22:08:17.775Z,102580.00
2023-04-18T22:13:22.077Z,102571.63
2023-04-18T22:18:24.805Z,102577.44
2023-04-18T22:23:27.534Z,102587.19
2023-04-18T22:28:29.110Z,102590.25
2023-04-18T22:33:30.663Z,102590.91
2023-04-18T22:38:32.208Z,102586.72
2023-04-18T22:43:33.779Z,102588.97
2023-04-18T22:48:35.318Z,102583.81
2023-04-18T22:53:36.954Z,102583.41
2023-04-18T22:58:38.399Z,102587.25
2023-04-18T23:03:39.987Z,102588.38
2023-04-18T23:08:41.524Z,102589.06
2023-04-18T23:13:42.907Z,102592.75
2023-04-18T23:18:44.334Z,102598.16
2023-04-18T23:23:45.810Z,102594.94
2023-04-18T23:28:47.252Z,102596.69
2023-04-18T23:33:48.697Z,102596.81
2023-04-18T23:38:50.417Z,102601.50
2023-04-18T23:43:51.872Z,102589.72
2023-04-18T23:48:53.370Z,102589.72
2023-04-18T23:53:54.796Z,102587.41
2023-04-18T23:58:56.968Z,102583.66
